Higashi-osaka, Japan
Current Conditions -  °F | °C
As of 10:00 AM on Thursday 18 Dec 2014 (Local Time) from RJOO Reporting Station
Few Clouds Few Clouds  
Wind Chill: 31°   Ceiling: Unl
Heat Index: 37°   Visibility: 6mi
Dew Point: 23°   Wind: 9mph
Humidity: 56%   Direction: 250°WSW
Pressure: 30.18"   Gusts: NA
Location:  34.67°N, 135.58°E
Report Text: RJOO 180100Z 25008KT 220V290 9999 FEW020 03/M05 Q1022
Loading
Personal Weather Stations






























Interactive Weather Map New forecast layout! Learn more

10-Day Weather Forecast

Advertisements
Track Severe Weather on mobile